Time,TemperatureF,DewpointF,PressureIn,WindDirection,WindDirectionDegrees,WindSpeedMPH,WindSpeedGustMPH,Humidity,HourlyPrecipIn,Conditions,Clouds,dailyrainin,SoftwareType,DateUTC
2013-01-15 00:02:00,24.0,-7.0,-100.00,NE,43,8.0,24.0,24,-99.99,,,-99.99,,2013-01-15 08:02:00,
2013-01-15 00:12:00,24.0,-7.0,-100.00,ENE,64,12.0,33.0,24,-99.99,,,-99.99,,2013-01-15 08:12:00,
2013-01-15 00:22:00,24.0,-7.0,-100.00,ENE,63,14.0,39.0,24,-99.99,,,-99.99,,2013-01-15 08:22:00,
2013-01-15 00:32:00,25.0,-8.0,-100.00,ENE,73,13.0,32.0,23,-99.99,,,-99.99,,2013-01-15 08:32:00,
2013-01-15 00:42:00,25.0,-8.0,-100.00,NE,52,9.0,29.0,23,-99.99,,,-99.99,,2013-01-15 08:42:00,
2013-01-15 00:52:00,25.0,-8.0,-100.00,ENE,72,15.0,34.0,22,-99.99,,,-99.99,,2013-01-15 08:52:00,
2013-01-15 01:02:00,25.0,-8.0,-100.00,ENE,61,15.0,33.0,22,-99.99,,,-99.99,,2013-01-15 09:02:00,
2013-01-15 01:11:00,26.0,-8.0,-100.00,ENE,59,10.0,32.0,22,-99.99,,,-99.99,,2013-01-15 09:11:00,
2013-01-15 01:22:00,26.0,-8.0,-100.00,ENE,64,15.0,30.0,22,-99.99,,,-99.99,,2013-01-15 09:22:00,
2013-01-15 01:33:00,26.0,-7.0,-100.00,ENE,68,14.0,33.0,23,-99.99,,,-99.99,,2013-01-15 09:33:00,
2013-01-15 01:42:00,26.0,-6.0,-100.00,NE,42,10.0,26.0,24,-99.99,,,-99.99,,2013-01-15 09:42:00,
2013-01-15 01:52:00,26.0,-6.0,-100.00,NE,42,10.0,26.0,24,-99.99,,,-99.99,,2013-01-15 09:52:00,
2013-01-15 02:02:00,25.0,-6.0,-100.00,ENE,60,14.0,30.0,25,-99.99,,,-99.99,,2013-01-15 10:02:00,
2013-01-15 02:11:00,25.0,-6.0,-100.00,NE,41,8.0,24.0,25,-99.99,,,-99.99,,2013-01-15 10:11:00,
2013-01-15 02:22:00,25.0,-6.0,-100.00,NE,48,9.0,25.0,25,-99.99,,,-99.99,,2013-01-15 10:22:00,
2013-01-15 02:32:00,25.0,-5.0,-100.00,NE,48,9.0,22.0,26,-99.99,,,-99.99,,2013-01-15 10:32:00,
2013-01-15 02:42:00,25.0,-6.0,-100.00,North,9,6.0,22.0,25,-99.99,,,-99.99,,2013-01-15 10:42:00,
2013-01-15 02:52:00,25.0,-5.0,-100.00,North,360,7.0,22.0,26,-99.99,,,-99.99,,2013-01-15 10:52:00,
2013-01-15 03:02:00,25.0,-6.0,-100.00,North,7,6.0,19.0,25,-99.99,,,-99.99,,2013-01-15 11:02:00,
2013-01-15 03:12:00,25.0,-6.0,-100.00,NNE,17,8.0,21.0,25,-99.99,,,-99.99,,2013-01-15 11:12:00,
2013-01-15 03:22:00,25.0,-5.0,-100.00,North,349,7.0,22.0,26,-99.99,,,-99.99,,2013-01-15 11:22:00,
2013-01-15 03:32:00,25.0,-5.0,-100.00,North,0,5.0,17.0,26,-99.99,,,-99.99,,2013-01-15 11:32:00,
2013-01-15 03:42:00,25.0,-4.0,-100.00,NNE,20,6.0,16.0,27,-99.99,,,-99.99,,2013-01-15 11:42:00,
2013-01-15 03:52:00,26.0,-3.0,-100.00,NNE,21,8.0,22.0,27,-99.99,,,-99.99,,2013-01-15 11:52:00,
2013-01-15 04:02:00,26.0,-3.0,-100.00,ENE,69,5.0,16.0,28,-99.99,,,-99.99,,2013-01-15 12:02:00,
2013-01-15 04:12:00,26.0,-3.0,-100.00,NE,51,5.0,16.0,28,-99.99,,,-99.99,,2013-01-15 12:12:00,
2013-01-15 04:22:00,26.0,-3.0,-100.00,NNE,14,6.0,19.0,28,-99.99,,,-99.99,,2013-01-15 12:22:00,
2013-01-15 04:32:00,26.0,-3.0,-100.00,ENE,59,8.0,23.0,27,-99.99,,,-99.99,,2013-01-15 12:32:00,
2013-01-15 04:42:00,26.0,-3.0,-100.00,ENE,67,7.0,23.0,27,-99.99,,,-99.99,,2013-01-15 12:42:00,
2013-01-15 04:53:00,26.0,-3.0,-100.00,NE,43,10.0,25.0,27,-99.99,,,-99.99,,2013-01-15 12:53:00,
2013-01-15 05:02:00,26.0,-3.0,-100.00,ENE,70,10.0,30.0,28,-99.99,,,-99.99,,2013-01-15 13:02:00,
2013-01-15 05:12:00,26.0,-3.0,-100.00,NE,54,9.0,31.0,28,-99.99,,,-99.99,,2013-01-15 13:12:00,
2013-01-15 05:22:00,26.0,-2.0,-100.00,NE,51,8.0,21.0,29,-99.99,,,-99.99,,2013-01-15 13:22:00,
2013-01-15 05:32:00,26.0,-2.0,-100.00,ENE,74,5.0,18.0,29,-99.99,,,-99.99,,2013-01-15 13:32:00,
2013-01-15 05:42:00,26.0,-2.0,-100.00,ENE,74,5.0,18.0,29,-99.99,,,-99.99,,2013-01-15 13:42:00,
2013-01-15 05:53:00,26.0,-2.0,-100.00,NE,50,8.0,19.0,29,-99.99,,,-99.99,,2013-01-15 13:53:00,
2013-01-15 06:02:00,26.0,-2.0,-100.00,ENE,62,9.0,24.0,29,-99.99,,,-99.99,,2013-01-15 14:02:00,
2013-01-15 06:12:00,26.0,-2.0,-100.00,ENE,66,14.0,26.0,29,-99.99,,,-99.99,,2013-01-15 14:12:00,
2013-01-15 06:22:00,25.0,-3.0,-100.00,ENE,64,15.0,24.0,29,-99.99,,,-99.99,,2013-01-15 14:22:00,
2013-01-15 06:32:00,25.0,-3.0,-100.00,ENE,67,11.0,20.0,29,-99.99,,,-99.99,,2013-01-15 14:32:00,
2013-01-15 06:42:00,26.0,-1.0,-100.00,ENE,60,12.0,26.0,30,-99.99,,,-99.99,,2013-01-15 14:42:00,
2013-01-15 06:53:00,27.0,0.0,-100.00,NE,56,10.0,31.0,30,-99.99,,,-99.99,,2013-01-15 14:53:00,
2013-01-15 07:02:00,28.0,1.0,-100.00,ENE,63,13.0,28.0,30,-99.99,,,-99.99,,2013-01-15 15:02:00,
2013-01-15 07:12:00,29.0,1.0,-100.00,ENE,60,9.0,28.0,30,-99.99,,,-99.99,,2013-01-15 15:12:00,
2013-01-15 07:23:00,29.0,1.0,-100.00,ENE,65,12.0,27.0,30,-99.99,,,-99.99,,2013-01-15 15:23:00,
2013-01-15 07:33:00,29.0,2.0,-100.00,NNE,22,7.0,16.0,31,-99.99,,,-99.99,,2013-01-15 15:33:00,
2013-01-15 07:43:00,29.0,2.0,-100.00,NNE,22,7.0,16.0,31,-99.99,,,-99.99,,2013-01-15 15:43:00,
2013-01-15 07:52:00,29.0,2.0,-100.00,North,354,6.0,16.0,31,-99.99,,,-99.99,,2013-01-15 15:52:00,
2013-01-15 08:02:00,29.0,2.0,-100.00,North,354,6.0,16.0,31,-99.99,,,-99.99,,2013-01-15 16:02:00,
2013-01-15 08:12:00,31.0,4.0,-100.00,NE,50,7.0,18.0,31,-99.99,,,-99.99,,2013-01-15 16:12:00,
2013-01-15 08:22:00,31.0,4.0,-100.00,ENE,66,11.0,28.0,31,-99.99,,,-99.99,,2013-01-15 16:22:00,
2013-01-15 08:33:00,31.0,4.0,-100.00,ENE,66,10.0,21.0,31,-99.99,,,-99.99,,2013-01-15 16:33:00,
2013-01-15 08:42:00,31.0,4.0,-100.00,ENE,70,11.0,27.0,31,-99.99,,,-99.99,,2013-01-15 16:42:00,
2013-01-15 08:53:00,31.0,3.0,-100.00,ENE,61,6.0,19.0,30,-99.99,,,-99.99,,2013-01-15 16:53:00,
2013-01-15 09:03:00,31.0,3.0,-100.00,ENE,61,6.0,19.0,30,-99.99,,,-99.99,,2013-01-15 17:03:00,
2013-01-15 09:12:00,32.0,5.0,-100.00,NNE,20,7.0,24.0,31,-99.99,,,-99.99,,2013-01-15 17:12:00,
2013-01-15 09:22:00,32.0,5.0,-100.00,NNW,340,7.0,26.0,31,-99.99,,,-99.99,,2013-01-15 17:22:00,
2013-01-15 09:33:00,33.0,5.0,-100.00,NE,36,5.0,15.0,30,-99.99,,,-99.99,,2013-01-15 17:33:00,
2013-01-15 09:42:00,33.0,5.0,-100.00,NNE,14,6.0,20.0,30,-99.99,,,-99.99,,2013-01-15 17:42:00,
2013-01-15 09:53:00,33.0,5.0,-100.00,NE,50,8.0,27.0,30,-99.99,,,-99.99,,2013-01-15 17:53:00,
2013-01-15 10:02:00,33.0,5.0,-100.00,NE,50,8.0,27.0,30,-99.99,,,-99.99,,2013-01-15 18:02:00,
2013-01-15 10:12:00,33.0,6.0,-100.00,NE,52,9.0,23.0,31,-99.99,,,-99.99,,2013-01-15 18:12:00,
2013-01-15 10:22:00,33.0,6.0,-100.00,NE,37,5.0,16.0,31,-99.99,,,-99.99,,2013-01-15 18:22:00,
2013-01-15 10:33:00,33.0,5.0,-100.00,ENE,63,6.0,22.0,30,-99.99,,,-99.99,,2013-01-15 18:33:00,
2013-01-15 10:42:00,33.0,5.0,-100.00,NE,48,8.0,24.0,30,-99.99,,,-99.99,,2013-01-15 18:42:00,
2013-01-15 10:53:00,33.0,6.0,-100.00,NE,52,9.0,21.0,31,-99.99,,,-99.99,,2013-01-15 18:53:00,
2013-01-15 11:03:00,33.0,5.0,-100.00,NNE,29,7.0,20.0,30,-99.99,,,-99.99,,2013-01-15 19:03:00,
2013-01-15 11:12:00,33.0,5.0,-100.00,NE,47,7.0,21.0,30,-99.99,,,-99.99,,2013-01-15 19:12:00,
2013-01-15 11:22:00,34.0,6.0,-100.00,NE,48,6.0,18.0,30,-99.99,,,-99.99,,2013-01-15 19:22:00,
2013-01-15 11:33:00,34.0,6.0,-100.00,NE,53,7.0,19.0,30,-99.99,,,-99.99,,2013-01-15 19:33:00,
2013-01-15 11:42:00,34.0,6.0,-100.00,NNE,20,6.0,17.0,30,-99.99,,,-99.99,,2013-01-15 19:42:00,
2013-01-15 11:52:00,34.0,6.0,-100.00,NE,42,6.0,18.0,30,-99.99,,,-99.99,,2013-01-15 19:52:00,
2013-01-15 12:02:00,34.0,6.0,-100.00,NE,42,6.0,18.0,30,-99.99,,,-99.99,,2013-01-15 20:02:00,
2013-01-15 12:12:00,36.0,8.0,-100.00,North,349,5.0,15.0,30,-99.99,,,-99.99,,2013-01-15 20:12:00,
2013-01-15 12:22:00,37.0,8.0,-100.00,NE,51,5.0,14.0,30,-99.99,,,-99.99,,2013-01-15 20:22:00,
2013-01-15 12:33:00,38.0,9.0,-100.00,West,262,5.0,15.0,29,-99.99,,,-99.99,,2013-01-15 20:33:00,
2013-01-15 12:43:00,36.0,7.0,-100.00,NE,52,7.0,18.0,29,-99.99,,,-99.99,,2013-01-15 20:43:00,
2013-01-15 12:52:00,36.0,7.0,-100.00,NW,304,7.0,18.0,29,-99.99,,,-99.99,,2013-01-15 20:52:00,
2013-01-15 13:02:00,36.0,8.0,-100.00,North,359,6.0,19.0,30,-99.99,,,-99.99,,2013-01-15 21:02:00,
2013-01-15 13:12:00,36.0,7.0,-100.00,NE,34,5.0,17.0,29,-99.99,,,-99.99,,2013-01-15 21:12:00,
2013-01-15 13:22:00,36.0,7.0,-100.00,ENE,73,4.0,17.0,29,-99.99,,,-99.99,,2013-01-15 21:22:00,
2013-01-15 13:33:00,36.0,6.0,-100.00,NNE,26,7.0,17.0,28,-99.99,,,-99.99,,2013-01-15 21:33:00,
2013-01-15 13:42:00,36.0,7.0,-100.00,SE,131,5.0,11.0,29,-99.99,,,-99.99,,2013-01-15 21:42:00,
2013-01-15 13:52:00,37.0,8.0,-100.00,ESE,105,5.0,12.0,29,-99.99,,,-99.99,,2013-01-15 21:52:00,
2013-01-15 14:02:00,38.0,9.0,-100.00,ENE,69,5.0,18.0,29,-99.99,,,-99.99,,2013-01-15 22:02:00,
2013-01-15 14:12:00,38.0,9.0,-100.00,NE,46,6.0,17.0,30,-99.99,,,-99.99,,2013-01-15 22:12:00,
2013-01-15 14:22:00,39.0,10.0,-100.00,ESE,118,5.0,16.0,30,-99.99,,,-99.99,,2013-01-15 22:22:00,
2013-01-15 14:32:00,39.0,9.0,-100.00,SSW,207,4.0,10.0,29,-99.99,,,-99.99,,2013-01-15 22:32:00,
2013-01-15 14:42:00,38.0,9.0,-100.00,SE,135,5.0,15.0,30,-99.99,,,-99.99,,2013-01-15 22:42:00,
2013-01-15 14:52:00,38.0,9.0,-100.00,NW,320,6.0,14.0,29,-99.99,,,-99.99,,2013-01-15 22:52:00,
2013-01-15 15:02:00,38.0,9.0,-100.00,North,355,6.0,14.0,29,-99.99,,,-99.99,,2013-01-15 23:02:00,
2013-01-15 15:12:00,37.0,8.0,-100.00,NNE,23,5.0,13.0,30,-99.99,,,-99.99,,2013-01-15 23:12:00,
2013-01-15 15:22:00,37.0,8.0,-100.00,North,360,6.0,13.0,30,-99.99,,,-99.99,,2013-01-15 23:22:00,
2013-01-15 15:32:00,38.0,9.0,-100.00,North,349,4.0,10.0,29,-99.99,,,-99.99,,2013-01-15 23:32:00,
2013-01-15 15:42:00,39.0,9.0,-100.00,SSE,152,3.0,9.0,29,-99.99,,,-99.99,,2013-01-15 23:42:00,
2013-01-15 15:53:00,38.0,8.0,-100.00,North,355,4.0,10.0,28,-99.99,,,-99.99,,2013-01-15 23:53:00,
2013-01-15 16:02:00,38.0,9.0,-100.00,North,358,3.0,12.0,29,-99.99,,,-99.99,,2013-01-16 00:02:00,
2013-01-15 16:12:00,37.0,8.0,-100.00,NE,42,3.0,12.0,29,-99.99,,,-99.99,,2013-01-16 00:12:00,
2013-01-15 16:22:00,36.0,7.0,-100.00,NNE,25,5.0,11.0,29,-99.99,,,-99.99,,2013-01-16 00:22:00,
2013-01-15 16:32:00,37.0,8.0,-100.00,North,2,4.0,11.0,30,-99.99,,,-99.99,,2013-01-16 00:32:00,
2013-01-15 16:42:00,36.0,8.0,-100.00,North,357,3.0,13.0,30,-99.99,,,-99.99,,2013-01-16 00:42:00,
2013-01-15 16:52:00,36.0,8.0,-100.00,NW,312,5.0,12.0,30,-99.99,,,-99.99,,2013-01-16 00:52:00,
2013-01-15 17:02:00,37.0,9.0,-100.00,West,272,4.0,11.0,31,-99.99,,,-99.99,,2013-01-16 01:02:00,
2013-01-15 17:12:00,36.0,8.0,-100.00,SSW,192,4.0,14.0,31,-99.99,,,-99.99,,2013-01-16 01:12:00,
2013-01-15 17:22:00,34.0,8.0,-100.00,SE,145,5.0,14.0,33,-99.99,,,-99.99,,2013-01-16 01:22:00,
2013-01-15 17:32:00,34.0,9.0,-100.00,WSW,256,4.0,12.0,34,-99.99,,,-99.99,,2013-01-16 01:32:00,
2013-01-15 17:42:00,33.0,8.0,-100.00,NNE,23,5.0,15.0,34,-99.99,,,-99.99,,2013-01-16 01:42:00,
2013-01-15 17:52:00,33.0,8.0,-100.00,NW,324,4.0,13.0,35,-99.99,,,-99.99,,2013-01-16 01:52:00,
2013-01-15 18:02:00,34.0,9.0,-100.00,NNE,30,7.0,21.0,35,-99.99,,,-99.99,,2013-01-16 02:02:00,
2013-01-15 18:12:00,34.0,9.0,-100.00,NE,52,10.0,29.0,35,-99.99,,,-99.99,,2013-01-16 02:12:00,
2013-01-15 18:22:00,34.0,9.0,-100.00,ENE,68,13.0,33.0,35,-99.99,,,-99.99,,2013-01-16 02:22:00,
2013-01-15 18:32:00,34.0,9.0,-100.00,WNW,291,5.0,19.0,35,-99.99,,,-99.99,,2013-01-16 02:32:00,
2013-01-15 18:42:00,35.0,10.0,-100.00,NNE,27,10.0,26.0,35,-99.99,,,-99.99,,2013-01-16 02:42:00,
2013-01-15 18:52:00,35.0,10.0,-100.00,NE,36,9.0,27.0,35,-99.99,,,-99.99,,2013-01-16 02:52:00,
2013-01-15 19:02:00,36.0,11.0,-100.00,NNE,31,11.0,33.0,35,-99.99,,,-99.99,,2013-01-16 03:02:00,
2013-01-15 19:11:00,36.0,11.0,-100.00,East,84,8.0,25.0,35,-99.99,,,-99.99,,2013-01-16 03:11:00,
2013-01-15 19:22:00,36.0,10.0,-100.00,ENE,65,16.0,34.0,34,-99.99,,,-99.99,,2013-01-16 03:22:00,
2013-01-15 19:32:00,38.0,11.0,-100.00,ENE,62,23.0,45.0,32,-99.99,,,-99.99,,2013-01-16 03:32:00,
2013-01-15 19:42:00,38.0,11.0,-100.00,ENE,64,24.0,38.0,32,-99.99,,,-99.99,,2013-01-16 03:42:00,
2013-01-15 19:52:00,37.0,10.0,-100.00,ENE,66,18.0,36.0,32,-99.99,,,-99.99,,2013-01-16 03:52:00,
2013-01-15 20:02:00,37.0,10.0,-100.00,ENE,66,18.0,36.0,32,-99.99,,,-99.99,,2013-01-16 04:02:00,
2013-01-15 20:12:00,37.0,11.0,-100.00,ENE,64,22.0,42.0,33,-99.99,,,-99.99,,2013-01-16 04:12:00,
2013-01-15 20:22:00,37.0,10.0,-100.00,ENE,62,27.0,43.0,32,-99.99,,,-99.99,,2013-01-16 04:22:00,
2013-01-15 20:32:00,37.0,11.0,-100.00,ENE,64,22.0,40.0,33,-99.99,,,-99.99,,2013-01-16 04:32:00,
2013-01-15 20:42:00,37.0,11.0,-100.00,ENE,67,21.0,39.0,33,-99.99,,,-99.99,,2013-01-16 04:42:00,
2013-01-15 20:52:00,37.0,11.0,-100.00,ENE,64,20.0,42.0,33,-99.99,,,-99.99,,2013-01-16 04:52:00,
2013-01-15 21:03:00,37.0,11.0,-100.00,ENE,74,20.0,42.0,33,-99.99,,,-99.99,,2013-01-16 05:03:00,
2013-01-15 21:12:00,37.0,11.0,-100.00,ENE,62,21.0,44.0,33,-99.99,,,-99.99,,2013-01-16 05:12:00,
2013-01-15 21:22:00,37.0,11.0,-100.00,ENE,63,18.0,39.0,33,-99.99,,,-99.99,,2013-01-16 05:22:00,
2013-01-15 21:32:00,37.0,11.0,-100.00,ENE,71,17.0,39.0,33,-99.99,,,-99.99,,2013-01-16 05:32:00,
2013-01-15 21:42:00,37.0,11.0,-100.00,ENE,58,20.0,47.0,33,-99.99,,,-99.99,,2013-01-16 05:42:00,
2013-01-15 21:52:00,37.0,11.0,-100.00,ENE,61,24.0,47.0,33,-99.99,,,-99.99,,2013-01-16 05:52:00,
2013-01-15 22:02:00,37.0,11.0,-100.00,ENE,66,28.0,52.0,33,-99.99,,,-99.99,,2013-01-16 06:02:00,
2013-01-15 22:11:00,37.0,11.0,-100.00,ENE,65,32.0,50.0,33,-99.99,,,-99.99,,2013-01-16 06:11:00,
2013-01-15 22:22:00,36.0,10.0,-100.00,ENE,62,22.0,52.0,33,-99.99,,,-99.99,,2013-01-16 06:22:00,
2013-01-15 22:32:00,36.0,10.0,-100.00,ENE,63,20.0,40.0,34,-99.99,,,-99.99,,2013-01-16 06:32:00,
2013-01-15 22:42:00,36.0,10.0,-100.00,ENE,65,28.0,46.0,34,-99.99,,,-99.99,,2013-01-16 06:42:00,
2013-01-15 22:52:00,37.0,11.0,-100.00,ENE,66,31.0,46.0,33,-99.99,,,-99.99,,2013-01-16 06:52:00,
2013-01-15 23:02:00,37.0,11.0,-100.00,ENE,65,34.0,49.0,33,-99.99,,,-99.99,,2013-01-16 07:02:00,
2013-01-15 23:11:00,38.0,11.0,-100.00,ENE,67,37.0,53.0,32,-99.99,,,-99.99,,2013-01-16 07:11:00,
2013-01-15 23:22:00,38.0,11.0,-100.00,ENE,66,29.0,50.0,32,-99.99,,,-99.99,,2013-01-16 07:22:00,
2013-01-15 23:32:00,38.0,11.0,-100.00,ENE,60,19.0,47.0,32,-99.99,,,-99.99,,2013-01-16 07:32:00,
2013-01-15 23:42:00,38.0,11.0,-100.00,ENE,64,18.0,45.0,33,-99.99,,,-99.99,,2013-01-16 07:42:00,
2013-01-15 23:52:00,37.0,11.0,-100.00,NE,48,17.0,41.0,33,-99.99,,,-99.99,,2013-01-16 07:52:00,